sensor_id;sensor_type;location;lat;lon;timestamp;temperature;humidity
38265;DHT22;24062;47.480;8.768;2023-02-04T00:02:24;5.60;74.70
38265;DHT22;24062;47.480;8.768;2023-02-04T00:04:52;5.50;74.80
38265;DHT22;24062;47.480;8.768;2023-02-04T00:07:19;5.50;74.70
38265;DHT22;24062;47.480;8.768;2023-02-04T00:09:46;5.50;75.30
38265;DHT22;24062;47.480;8.768;2023-02-04T00:12:14;5.50;74.90
38265;DHT22;24062;47.480;8.768;2023-02-04T00:14:41;5.60;75.50
38265;DHT22;24062;47.480;8.768;2023-02-04T00:17:08;5.60;75.30
38265;DHT22;24062;47.480;8.768;2023-02-04T00:19:37;5.50;75.90
38265;DHT22;24062;47.480;8.768;2023-02-04T00:22:06;5.50;76.60
38265;DHT22;24062;47.480;8.768;2023-02-04T00:24:33;5.50;75.80
38265;DHT22;24062;47.480;8.768;2023-02-04T00:27:00;5.50;76.40
38265;DHT22;24062;47.480;8.768;2023-02-04T00:29:27;5.40;76.10
38265;DHT22;24062;47.480;8.768;2023-02-04T00:31:54;5.50;76.50
38265;DHT22;24062;47.480;8.768;2023-02-04T00:34:21;5.50;76.50
38265;DHT22;24062;47.480;8.768;2023-02-04T00:36:48;5.50;76.80
38265;DHT22;24062;47.480;8.768;2023-02-04T00:39:16;5.50;76.80
38265;DHT22;24062;47.480;8.768;2023-02-04T00:41:43;5.50;76.80
38265;DHT22;24062;47.480;8.768;2023-02-04T00:44:10;5.50;77.20
38265;DHT22;24062;47.480;8.768;2023-02-04T00:46:38;5.50;77.40
38265;DHT22;24062;47.480;8.768;2023-02-04T00:49:05;5.50;77.30
38265;DHT22;24062;47.480;8.768;2023-02-04T00:51:35;5.60;77.50
38265;DHT22;24062;47.480;8.768;2023-02-04T00:54:03;5.60;77.30
38265;DHT22;24062;47.480;8.768;2023-02-04T00:56:32;5.60;77.40
38265;DHT22;24062;47.480;8.768;2023-02-04T00:58:59;5.60;77.40
38265;DHT22;24062;47.480;8.768;2023-02-04T01:01:26;5.60;77.70
38265;DHT22;24062;47.480;8.768;2023-02-04T01:03:53;5.60;77.50
38265;DHT22;24062;47.480;8.768;2023-02-04T01:06:20;5.60;77.70
38265;DHT22;24062;47.480;8.768;2023-02-04T01:08:47;5.60;77.80
38265;DHT22;24062;47.480;8.768;2023-02-04T01:11:14;5.60;77.80
38265;DHT22;24062;47.480;8.768;2023-02-04T01:13:42;5.60;78.00
38265;DHT22;24062;47.480;8.768;2023-02-04T01:16:09;5.60;78.20
38265;DHT22;24062;47.480;8.768;2023-02-04T01:18:36;5.60;78.30
38265;DHT22;24062;47.480;8.768;2023-02-04T01:21:03;5.60;78.40
38265;DHT22;24062;47.480;8.768;2023-02-04T01:23:31;5.60;78.50
38265;DHT22;24062;47.480;8.768;2023-02-04T01:25:58;5.60;78.40
38265;DHT22;24062;47.480;8.768;2023-02-04T01:28:25;5.50;78.30
38265;DHT22;24062;47.480;8.768;2023-02-04T01:30:53;5.60;78.80
38265;DHT22;24062;47.480;8.768;2023-02-04T01:33:20;5.60;78.90
38265;DHT22;24062;47.480;8.768;2023-02-04T01:35:47;5.60;79.10
38265;DHT22;24062;47.480;8.768;2023-02-04T01:38:14;5.70;79.00
38265;DHT22;24062;47.480;8.768;2023-02-04T01:40:41;5.70;78.90
38265;DHT22;24062;47.480;8.768;2023-02-04T01:43:09;5.60;78.70
38265;DHT22;24062;47.480;8.768;2023-02-04T01:45:37;5.60;79.00
38265;DHT22;24062;47.480;8.768;2023-02-04T01:48:06;5.60;79.10
38265;DHT22;24062;47.480;8.768;2023-02-04T01:50:33;5.70;79.20
38265;DHT22;24062;47.480;8.768;2023-02-04T01:53:01;5.80;79.30
38265;DHT22;24062;47.480;8.768;2023-02-04T01:55:30;5.70;79.10
38265;DHT22;24062;47.480;8.768;2023-02-04T01:57:58;5.70;79.30
38265;DHT22;24062;47.480;8.768;2023-02-04T02:00:26;5.80;79.40
38265;DHT22;24062;47.480;8.768;2023-02-04T02:02:54;5.80;79.40
38265;DHT22;24062;47.480;8.768;2023-02-04T02:05:25;5.80;79.30
38265;DHT22;24062;47.480;8.768;2023-02-04T02:07:56;5.70;79.40
38265;DHT22;24062;47.480;8.768;2023-02-04T02:10:23;5.70;79.70
38265;DHT22;24062;47.480;8.768;2023-02-04T02:12:51;5.70;79.60
38265;DHT22;24062;47.480;8.768;2023-02-04T02:15:19;5.70;79.70
38265;DHT22;24062;47.480;8.768;2023-02-04T02:17:46;5.70;79.80
38265;DHT22;24062;47.480;8.768;2023-02-04T02:22:52;5.70;80.20
38265;DHT22;24062;47.480;8.768;2023-02-04T02:25:22;5.80;80.40
38265;DHT22;24062;47.480;8.768;2023-02-04T02:27:49;5.80;80.30
38265;DHT22;24062;47.480;8.768;2023-02-04T02:30:17;5.90;80.40
38265;DHT22;24062;47.480;8.768;2023-02-04T02:32:45;5.80;80.20
38265;DHT22;24062;47.480;8.768;2023-02-04T02:35:13;5.80;80.60
38265;DHT22;24062;47.480;8.768;2023-02-04T02:37:41;5.80;80.50
38265;DHT22;24062;47.480;8.768;2023-02-04T02:40:09;5.70;80.70
38265;DHT22;24062;47.480;8.768;2023-02-04T02:42:38;5.70;80.90
38265;DHT22;24062;47.480;8.768;2023-02-04T02:45:21;5.70;80.80
38265;DHT22;24062;47.480;8.768;2023-02-04T02:47:49;5.70;81.00
38265;DHT22;24062;47.480;8.768;2023-02-04T02:50:19;5.80;81.10
38265;DHT22;24062;47.480;8.768;2023-02-04T02:52:47;5.60;80.90
38265;DHT22;24062;47.480;8.768;2023-02-04T02:55:15;5.70;81.40
38265;DHT22;24062;47.480;8.768;2023-02-04T02:57:45;5.60;81.40
38265;DHT22;24062;47.480;8.768;2023-02-04T03:00:14;5.60;81.60
38265;DHT22;24062;47.480;8.768;2023-02-04T03:02:42;5.60;81.80
38265;DHT22;24062;47.480;8.768;2023-02-04T03:05:10;5.70;81.90
38265;DHT22;24062;47.480;8.768;2023-02-04T03:07:38;5.70;81.80
38265;DHT22;24062;47.480;8.768;2023-02-04T03:10:05;5.80;81.80
38265;DHT22;24062;47.480;8.768;2023-02-04T03:12:33;5.80;81.80
38265;DHT22;24062;47.480;8.768;2023-02-04T03:15:01;5.80;81.80
38265;DHT22;24062;47.480;8.768;2023-02-04T03:17:29;5.80;81.90
38265;DHT22;24062;47.480;8.768;2023-02-04T03:19:56;5.90;81.90
38265;DHT22;24062;47.480;8.768;2023-02-04T03:22:23;5.90;82.00
38265;DHT22;24062;47.480;8.768;2023-02-04T03:24:50;5.90;82.00
38265;DHT22;24062;47.480;8.768;2023-02-04T03:27:18;5.90;82.10
38265;DHT22;24062;47.480;8.768;2023-02-04T03:29:45;5.90;81.90
38265;DHT22;24062;47.480;8.768;2023-02-04T03:32:13;5.90;82.10
38265;DHT22;24062;47.480;8.768;2023-02-04T03:34:40;5.90;82.40
38265;DHT22;24062;47.480;8.768;2023-02-04T03:37:07;5.90;82.50
38265;DHT22;24062;47.480;8.768;2023-02-04T03:39:34;6.00;82.60
38265;DHT22;24062;47.480;8.768;2023-02-04T03:42:01;6.00;82.50
38265;DHT22;24062;47.480;8.768;2023-02-04T03:44:28;6.00;82.50
38265;DHT22;24062;47.480;8.768;2023-02-04T03:46:55;6.00;82.50
38265;DHT22;24062;47.480;8.768;2023-02-04T03:49:24;6.00;82.40
38265;DHT22;24062;47.480;8.768;2023-02-04T03:51:52;6.00;82.40
38265;DHT22;24062;47.480;8.768;2023-02-04T03:54:19;6.00;82.50
38265;DHT22;24062;47.480;8.768;2023-02-04T03:56:45;6.00;82.50
38265;DHT22;24062;47.480;8.768;2023-02-04T03:59:12;6.00;82.70
38265;DHT22;24062;47.480;8.768;2023-02-04T04:01:39;5.90;82.80
38265;DHT22;24062;47.480;8.768;2023-02-04T04:04:06;6.00;83.00
38265;DHT22;24062;47.480;8.768;2023-02-04T04:06:34;6.00;83.00
38265;DHT22;24062;47.480;8.768;2023-02-04T04:09:01;6.00;82.80
38265;DHT22;24062;47.480;8.768;2023-02-04T04:11:29;5.90;82.80
38265;DHT22;24062;47.480;8.768;2023-02-04T04:13:56;5.90;83.20
38265;DHT22;24062;47.480;8.768;2023-02-04T04:16:23;5.90;83.20
38265;DHT22;24062;47.480;8.768;2023-02-04T04:18:50;6.00;83.50
38265;DHT22;24062;47.480;8.768;2023-02-04T04:21:17;6.00;83.50
38265;DHT22;24062;47.480;8.768;2023-02-04T04:23:45;6.10;83.70
38265;DHT22;24062;47.480;8.768;2023-02-04T04:26:12;6.10;83.30
38265;DHT22;24062;47.480;8.768;2023-02-04T04:28:39;6.10;83.50
38265;DHT22;24062;47.480;8.768;2023-02-04T04:31:06;6.20;83.70
38265;DHT22;24062;47.480;8.768;2023-02-04T04:33:33;6.20;83.30
38265;DHT22;24062;47.480;8.768;2023-02-04T04:36:00;6.10;83.30
38265;DHT22;24062;47.480;8.768;2023-02-04T04:38:27;6.10;83.80
38265;DHT22;24062;47.480;8.768;2023-02-04T04:40:55;6.20;83.60
38265;DHT22;24062;47.480;8.768;2023-02-04T04:43:22;6.20;83.90
38265;DHT22;24062;47.480;8.768;2023-02-04T04:45:49;6.20;84.00
38265;DHT22;24062;47.480;8.768;2023-02-04T04:48:16;6.20;83.60
38265;DHT22;24062;47.480;8.768;2023-02-04T04:50:43;6.10;83.60
38265;DHT22;24062;47.480;8.768;2023-02-04T04:53:10;6.10;84.20
38265;DHT22;24062;47.480;8.768;2023-02-04T04:55:37;6.10;83.90
38265;DHT22;24062;47.480;8.768;2023-02-04T04:58:07;6.10;84.30
38265;DHT22;24062;47.480;8.768;2023-02-04T05:00:34;6.20;84.40
38265;DHT22;24062;47.480;8.768;2023-02-04T05:03:01;6.20;84.30
38265;DHT22;24062;47.480;8.768;2023-02-04T05:05:28;6.20;84.10
38265;DHT22;24062;47.480;8.768;2023-02-04T05:07:55;6.30;84.40
38265;DHT22;24062;47.480;8.768;2023-02-04T05:10:22;6.30;84.50
38265;DHT22;24062;47.480;8.768;2023-02-04T05:12:49;6.40;84.60
38265;DHT22;24062;47.480;8.768;2023-02-04T05:15:17;6.40;84.10
38265;DHT22;24062;47.480;8.768;2023-02-04T05:17:44;6.30;84.00
38265;DHT22;24062;47.480;8.768;2023-02-04T05:20:11;6.30;84.40
38265;DHT22;24062;47.480;8.768;2023-02-04T05:22:38;6.30;84.20
38265;DHT22;24062;47.480;8.768;2023-02-04T05:25:05;6.30;84.30
38265;DHT22;24062;47.480;8.768;2023-02-04T05:27:32;6.30;84.40
38265;DHT22;24062;47.480;8.768;2023-02-04T05:29:59;6.30;84.40
38265;DHT22;24062;47.480;8.768;2023-02-04T05:32:28;6.30;84.50
38265;DHT22;24062;47.480;8.768;2023-02-04T05:34:55;6.30;84.10
38265;DHT22;24062;47.480;8.768;2023-02-04T05:37:21;6.30;84.40
38265;DHT22;24062;47.480;8.768;2023-02-04T05:39:48;6.20;84.40
38265;DHT22;24062;47.480;8.768;2023-02-04T05:42:15;6.30;85.00
38265;DHT22;24062;47.480;8.768;2023-02-04T05:44:42;6.30;84.80
38265;DHT22;24062;47.480;8.768;2023-02-04T05:47:09;6.30;85.00
38265;DHT22;24062;47.480;8.768;2023-02-04T05:49:37;6.40;85.10
38265;DHT22;24062;47.480;8.768;2023-02-04T05:52:04;6.50;85.10
38265;DHT22;24062;47.480;8.768;2023-02-04T05:54:31;6.50;85.10
38265;DHT22;24062;47.480;8.768;2023-02-04T05:56:58;6.50;85.00
38265;DHT22;24062;47.480;8.768;2023-02-04T05:59:25;6.50;84.60
38265;DHT22;24062;47.480;8.768;2023-02-04T06:01:52;6.50;84.90
38265;DHT22;24062;47.480;8.768;2023-02-04T06:04:19;6.50;84.90
38265;DHT22;24062;47.480;8.768;2023-02-04T06:06:47;6.40;85.00
38265;DHT22;24062;47.480;8.768;2023-02-04T06:09:14;6.50;85.40
38265;DHT22;24062;47.480;8.768;2023-02-04T06:11:41;6.50;85.30
38265;DHT22;24062;47.480;8.768;2023-02-04T06:14:08;6.40;84.90
38265;DHT22;24062;47.480;8.768;2023-02-04T06:16:35;6.40;85.30
38265;DHT22;24062;47.480;8.768;2023-02-04T06:19:02;6.40;85.80
38265;DHT22;24062;47.480;8.768;2023-02-04T06:21:29;6.40;85.70
38265;DHT22;24062;47.480;8.768;2023-02-04T06:23:57;6.50;85.80
38265;DHT22;24062;47.480;8.768;2023-02-04T06:26:24;6.40;85.40
38265;DHT22;24062;47.480;8.768;2023-02-04T06:28:51;6.40;85.60
38265;DHT22;24062;47.480;8.768;2023-02-04T06:31:18;6.40;86.10
38265;DHT22;24062;47.480;8.768;2023-02-04T06:33:45;6.50;87.10
38265;DHT22;24062;47.480;8.768;2023-02-04T06:36:12;6.60;86.00
38265;DHT22;24062;47.480;8.768;2023-02-04T06:38:39;6.50;85.10
38265;DHT22;24062;47.480;8.768;2023-02-04T06:41:07;6.40;85.90
38265;DHT22;24062;47.480;8.768;2023-02-04T06:43:34;6.40;86.20
38265;DHT22;24062;47.480;8.768;2023-02-04T06:46:01;6.40;86.30
38265;DHT22;24062;47.480;8.768;2023-02-04T06:48:28;6.40;86.40
38265;DHT22;24062;47.480;8.768;2023-02-04T06:50:55;6.40;86.60
38265;DHT22;24062;47.480;8.768;2023-02-04T06:53:22;6.50;86.70
38265;DHT22;24062;47.480;8.768;2023-02-04T06:55:49;6.50;86.80
38265;DHT22;24062;47.480;8.768;2023-02-04T06:58:18;6.50;86.70
38265;DHT22;24062;47.480;8.768;2023-02-04T07:00:45;6.40;86.20
38265;DHT22;24062;47.480;8.768;2023-02-04T07:03:12;6.40;86.60
38265;DHT22;24062;47.480;8.768;2023-02-04T07:05:39;6.40;86.50
38265;DHT22;24062;47.480;8.768;2023-02-04T07:08:06;6.40;87.20
38265;DHT22;24062;47.480;8.768;2023-02-04T07:10:33;6.40;87.60
38265;DHT22;24062;47.480;8.768;2023-02-04T07:13:00;6.50;87.30
38265;DHT22;24062;47.480;8.768;2023-02-04T07:15:28;6.50;87.30
38265;DHT22;24062;47.480;8.768;2023-02-04T07:17:56;6.50;87.30
38265;DHT22;24062;47.480;8.768;2023-02-04T07:20:23;6.50;87.10
38265;DHT22;24062;47.480;8.768;2023-02-04T07:22:50;6.50;87.50
38265;DHT22;24062;47.480;8.768;2023-02-04T07:25:16;6.50;87.70
38265;DHT22;24062;47.480;8.768;2023-02-04T07:27:43;6.50;87.90
38265;DHT22;24062;47.480;8.768;2023-02-04T07:30:11;6.50;87.30
38265;DHT22;24062;47.480;8.768;2023-02-04T07:32:40;6.40;87.40
38265;DHT22;24062;47.480;8.768;2023-02-04T07:35:07;6.40;88.40
38265;DHT22;24062;47.480;8.768;2023-02-04T07:37:34;6.40;88.20
38265;DHT22;24062;47.480;8.768;2023-02-04T07:40:01;6.50;88.80
38265;DHT22;24062;47.480;8.768;2023-02-04T07:42:28;6.60;89.30
38265;DHT22;24062;47.480;8.768;2023-02-04T07:44:55;6.70;89.40
38265;DHT22;24062;47.480;8.768;2023-02-04T07:47:22;6.70;89.10
38265;DHT22;24062;47.480;8.768;2023-02-04T07:49:50;6.70;89.30
38265;DHT22;24062;47.480;8.768;2023-02-04T07:52:19;6.70;89.30
38265;DHT22;24062;47.480;8.768;2023-02-04T07:54:46;6.70;89.20
38265;DHT22;24062;47.480;8.768;2023-02-04T07:57:12;6.80;89.70
38265;DHT22;24062;47.480;8.768;2023-02-04T07:59:39;6.80;89.90
38265;DHT22;24062;47.480;8.768;2023-02-04T08:02:06;6.90;89.90
38265;DHT22;24062;47.480;8.768;2023-02-04T08:04:33;6.90;90.00
38265;DHT22;24062;47.480;8.768;2023-02-04T08:07:02;7.00;89.80
38265;DHT22;24062;47.480;8.768;2023-02-04T08:09:29;7.00;90.00
38265;DHT22;24062;47.480;8.768;2023-02-04T08:11:55;7.00;89.50
38265;DHT22;24062;47.480;8.768;2023-02-04T08:14:24;6.90;89.40
38265;DHT22;24062;47.480;8.768;2023-02-04T08:16:51;6.90;89.90
38265;DHT22;24062;47.480;8.768;2023-02-04T08:19:18;6.90;88.90
38265;DHT22;24062;47.480;8.768;2023-02-04T08:21:46;6.90;89.70
38265;DHT22;24062;47.480;8.768;2023-02-04T08:24:15;6.90;90.00
38265;DHT22;24062;47.480;8.768;2023-02-04T08:26:42;7.00;89.80
38265;DHT22;24062;47.480;8.768;2023-02-04T08:29:09;6.90;90.00
38265;DHT22;24062;47.480;8.768;2023-02-04T08:31:36;6.90;89.40
38265;DHT22;24062;47.480;8.768;2023-02-04T08:34:04;6.90;89.70
38265;DHT22;24062;47.480;8.768;2023-02-04T08:36:31;7.00;90.10
38265;DHT22;24062;47.480;8.768;2023-02-04T08:38:58;7.00;90.30
38265;DHT22;24062;47.480;8.768;2023-02-04T08:41:27;7.10;90.20
38265;DHT22;24062;47.480;8.768;2023-02-04T08:43:54;7.20;90.40
38265;DHT22;24062;47.480;8.768;2023-02-04T08:46:20;7.20;90.40
38265;DHT22;24062;47.480;8.768;2023-02-04T08:48:47;7.30;90.20
38265;DHT22;24062;47.480;8.768;2023-02-04T08:51:14;7.30;90.30
38265;DHT22;24062;47.480;8.768;2023-02-04T08:53:41;7.30;90.30
38265;DHT22;24062;47.480;8.768;2023-02-04T08:56:08;7.40;90.30
38265;DHT22;24062;47.480;8.768;2023-02-04T08:58:41;7.40;90.30
38265;DHT22;24062;47.480;8.768;2023-02-04T09:01:08;7.40;90.30
38265;DHT22;24062;47.480;8.768;2023-02-04T09:03:36;7.40;90.40
38265;DHT22;24062;47.480;8.768;2023-02-04T09:06:03;7.40;90.30
38265;DHT22;24062;47.480;8.768;2023-02-04T09:08:30;7.50;90.50
38265;DHT22;24062;47.480;8.768;2023-02-04T09:10:57;7.40;90.40
38265;DHT22;24062;47.480;8.768;2023-02-04T09:13:24;7.40;90.20
38265;DHT22;24062;47.480;8.768;2023-02-04T09:15:53;7.40;90.70
38265;DHT22;24062;47.480;8.768;2023-02-04T09:18:19;7.60;90.90
38265;DHT22;24062;47.480;8.768;2023-02-04T09:20:47;7.60;90.80
38265;DHT22;24062;47.480;8.768;2023-02-04T09:23:15;7.70;90.40
38265;DHT22;24062;47.480;8.768;2023-02-04T09:25:43;7.60;90.40
38265;DHT22;24062;47.480;8.768;2023-02-04T09:28:11;7.50;90.30
38265;DHT22;24062;47.480;8.768;2023-02-04T09:30:39;7.50;90.30
38265;DHT22;24062;47.480;8.768;2023-02-04T09:33:08;7.50;90.60
38265;DHT22;24062;47.480;8.768;2023-02-04T09:35:36;7.60;90.80
38265;DHT22;24062;47.480;8.768;2023-02-04T09:38:03;7.70;90.90
38265;DHT22;24062;47.480;8.768;2023-02-04T09:40:32;7.70;91.00
38265;DHT22;24062;47.480;8.768;2023-02-04T09:43:00;7.80;90.90
38265;DHT22;24062;47.480;8.768;2023-02-04T09:45:29;7.80;90.70
38265;DHT22;24062;47.480;8.768;2023-02-04T09:48:00;7.90;91.10
38265;DHT22;24062;47.480;8.768;2023-02-04T09:50:29;8.10;91.00
38265;DHT22;24062;47.480;8.768;2023-02-04T09:53:00;8.10;90.80
38265;DHT22;24062;47.480;8.768;2023-02-04T09:55:31;8.20;90.90
38265;DHT22;24062;47.480;8.768;2023-02-04T09:57:59;8.20;90.40
38265;DHT22;24062;47.480;8.768;2023-02-04T10:00:28;8.10;90.10
38265;DHT22;24062;47.480;8.768;2023-02-04T10:02:58;8.00;90.40
38265;DHT22;24062;47.480;8.768;2023-02-04T10:05:30;8.10;90.80
38265;DHT22;24062;47.480;8.768;2023-02-04T10:07:57;8.10;90.50
38265;DHT22;24062;47.480;8.768;2023-02-04T10:10:26;8.10;90.20
38265;DHT22;24062;47.480;8.768;2023-02-04T10:12:56;8.00;90.50
38265;DHT22;24062;47.480;8.768;2023-02-04T10:15:23;8.00;90.80
38265;DHT22;24062;47.480;8.768;2023-02-04T10:17:53;8.00;90.50
38265;DHT22;24062;47.480;8.768;2023-02-04T10:20:22;7.90;90.50
38265;DHT22;24062;47.480;8.768;2023-02-04T10:22:52;7.80;90.30
38265;DHT22;24062;47.480;8.768;2023-02-04T10:25:23;7.70;90.50
38265;DHT22;24062;47.480;8.768;2023-02-04T10:27:51;7.60;90.70
38265;DHT22;24062;47.480;8.768;2023-02-04T10:30:21;7.60;91.20
38265;DHT22;24062;47.480;8.768;2023-02-04T10:32:48;7.70;91.10
38265;DHT22;24062;47.480;8.768;2023-02-04T10:35:19;7.70;90.80
38265;DHT22;24062;47.480;8.768;2023-02-04T10:37:47;7.70;90.60
38265;DHT22;24062;47.480;8.768;2023-02-04T10:40:29;7.70;90.90
38265;DHT22;24062;47.480;8.768;2023-02-04T10:42:57;7.80;91.20
38265;DHT22;24062;47.480;8.768;2023-02-04T10:45:25;7.80;91.10
38265;DHT22;24062;47.480;8.768;2023-02-04T10:47:54;7.80;91.00
38265;DHT22;24062;47.480;8.768;2023-02-04T10:50:23;7.80;90.60
38265;DHT22;24062;47.480;8.768;2023-02-04T10:52:52;7.70;90.50
38265;DHT22;24062;47.480;8.768;2023-02-04T10:55:21;7.50;90.20
38265;DHT22;24062;47.480;8.768;2023-02-04T10:57:51;7.30;90.30
38265;DHT22;24062;47.480;8.768;2023-02-04T11:00:19;7.20;90.60
38265;DHT22;24062;47.480;8.768;2023-02-04T11:02:58;7.20;91.10
38265;DHT22;24062;47.480;8.768;2023-02-04T11:05:30;7.30;91.40
38265;DHT22;24062;47.480;8.768;2023-02-04T11:07:58;7.40;91.30
38265;DHT22;24062;47.480;8.768;2023-02-04T11:10:29;7.40;91.00
38265;DHT22;24062;47.480;8.768;2023-02-04T11:13:02;7.40;91.30
38265;DHT22;24062;47.480;8.768;2023-02-04T11:15:43;7.50;91.20
38265;DHT22;24062;47.480;8.768;2023-02-04T11:18:12;7.50;91.40
38265;DHT22;24062;47.480;8.768;2023-02-04T11:20:52;7.60;91.40
38265;DHT22;24062;47.480;8.768;2023-02-04T11:23:35;7.70;91.30
38265;DHT22;24062;47.480;8.768;2023-02-04T11:26:05;7.70;91.10
38265;DHT22;24062;47.480;8.768;2023-02-04T11:29:07;7.70;91.10
38265;DHT22;24062;47.480;8.768;2023-02-04T11:31:43;7.60;90.90
38265;DHT22;24062;47.480;8.768;2023-02-04T11:34:28;7.50;90.90
38265;DHT22;24062;47.480;8.768;2023-02-04T11:37:33;7.40;90.90
38265;DHT22;24062;47.480;8.768;2023-02-04T11:40:01;7.40;91.10
38265;DHT22;24062;47.480;8.768;2023-02-04T11:42:38;7.30;90.90
38265;DHT22;24062;47.480;8.768;2023-02-04T11:45:13;7.30;91.40
38265;DHT22;24062;47.480;8.768;2023-02-04T11:47:42;7.50;91.50
38265;DHT22;24062;47.480;8.768;2023-02-04T11:50:15;7.60;91.40
38265;DHT22;24062;47.480;8.768;2023-02-04T11:52:43;7.70;91.20
38265;DHT22;24062;47.480;8.768;2023-02-04T11:55:11;7.80;91.60
38265;DHT22;24062;47.480;8.768;2023-02-04T11:57:39;8.00;91.30
38265;DHT22;24062;47.480;8.768;2023-02-04T12:00:22;8.10;91.20
38265;DHT22;24062;47.480;8.768;2023-02-04T12:02:53;8.20;91.40
38265;DHT22;24062;47.480;8.768;2023-02-04T12:05:21;8.30;90.90
38265;DHT22;24062;47.480;8.768;2023-02-04T12:07:48;8.20;90.30
38265;DHT22;24062;47.480;8.768;2023-02-04T12:10:23;8.20;90.00
38265;DHT22;24062;47.480;8.768;2023-02-04T12:12:52;8.20;90.10
38265;DHT22;24062;47.480;8.768;2023-02-04T12:15:24;8.20;90.50
38265;DHT22;24062;47.480;8.768;2023-02-04T12:18:02;8.30;90.30
38265;DHT22;24062;47.480;8.768;2023-02-04T12:20:29;8.30;90.20
38265;DHT22;24062;47.480;8.768;2023-02-04T12:22:56;8.40;89.90
38265;DHT22;24062;47.480;8.768;2023-02-04T12:25:23;8.40;88.30
38265;DHT22;24062;47.480;8.768;2023-02-04T12:27:51;8.40;89.30
38265;DHT22;24062;47.480;8.768;2023-02-04T12:30:19;8.50;90.00
38265;DHT22;24062;47.480;8.768;2023-02-04T12:32:48;8.60;89.70
38265;DHT22;24062;47.480;8.768;2023-02-04T12:35:15;8.80;89.60
38265;DHT22;24062;47.480;8.768;2023-02-04T12:37:42;9.00;89.70
38265;DHT22;24062;47.480;8.768;2023-02-04T12:40:12;9.30;89.60
38265;DHT22;24062;47.480;8.768;2023-02-04T12:42:40;9.40;87.70
38265;DHT22;24062;47.480;8.768;2023-02-04T12:45:08;9.60;88.30
38265;DHT22;24062;47.480;8.768;2023-02-04T12:47:35;9.70;85.20
38265;DHT22;24062;47.480;8.768;2023-02-04T12:50:04;9.70;84.90
38265;DHT22;24062;47.480;8.768;2023-02-04T12:52:31;9.70;83.50
38265;DHT22;24062;47.480;8.768;2023-02-04T12:54:58;9.70;83.90
38265;DHT22;24062;47.480;8.768;2023-02-04T12:57:25;9.90;85.80
38265;DHT22;24062;47.480;8.768;2023-02-04T12:59:52;10.20;84.70
38265;DHT22;24062;47.480;8.768;2023-02-04T13:02:22;10.40;84.10
38265;DHT22;24062;47.480;8.768;2023-02-04T13:04:49;10.70;85.50
38265;DHT22;24062;47.480;8.768;2023-02-04T13:07:17;10.80;79.50
38265;DHT22;24062;47.480;8.768;2023-02-04T13:09:44;10.70;80.60
38265;DHT22;24062;47.480;8.768;2023-02-04T13:12:11;10.80;80.70
38265;DHT22;24062;47.480;8.768;2023-02-04T13:14:38;10.80;80.70
38265;DHT22;24062;47.480;8.768;2023-02-04T13:17:06;11.00;81.80
38265;DHT22;24062;47.480;8.768;2023-02-04T13:19:33;11.30;81.20
38265;DHT22;24062;47.480;8.768;2023-02-04T13:22:00;11.60;81.00
38265;DHT22;24062;47.480;8.768;2023-02-04T13:24:29;12.00;79.50
38265;DHT22;24062;47.480;8.768;2023-02-04T13:26:56;12.20;77.20
38265;DHT22;24062;47.480;8.768;2023-02-04T13:29:22;12.30;77.50
38265;DHT22;24062;47.480;8.768;2023-02-04T13:31:49;12.20;77.20
38265;DHT22;24062;47.480;8.768;2023-02-04T13:34:17;12.00;76.30
38265;DHT22;24062;47.480;8.768;2023-02-04T13:36:44;11.70;75.10
38265;DHT22;24062;47.480;8.768;2023-02-04T13:39:11;11.30;73.50
38265;DHT22;24062;47.480;8.768;2023-02-04T13:41:39;11.10;75.10
38265;DHT22;24062;47.480;8.768;2023-02-04T13:44:07;11.10;74.00
38265;DHT22;24062;47.480;8.768;2023-02-04T13:46:34;11.20;75.50
38265;DHT22;24062;47.480;8.768;2023-02-04T13:49:01;11.40;74.50
38265;DHT22;24062;47.480;8.768;2023-02-04T13:51:28;11.70;75.30
38265;DHT22;24062;47.480;8.768;2023-02-04T13:53:55;11.90;74.60
38265;DHT22;24062;47.480;8.768;2023-02-04T13:56:23;12.00;73.50
38265;DHT22;24062;47.480;8.768;2023-02-04T13:58:51;11.80;70.70
38265;DHT22;24062;47.480;8.768;2023-02-04T14:01:18;11.60;71.00
38265;DHT22;24062;47.480;8.768;2023-02-04T14:03:45;11.50;71.40
38265;DHT22;24062;47.480;8.768;2023-02-04T14:06:12;11.60;72.60
38265;DHT22;24062;47.480;8.768;2023-02-04T14:08:40;11.70;72.20
38265;DHT22;24062;47.480;8.768;2023-02-04T14:11:07;11.80;71.70
38265;DHT22;24062;47.480;8.768;2023-02-04T14:13:34;11.80;70.70
38265;DHT22;24062;47.480;8.768;2023-02-04T14:16:02;11.90;71.20
38265;DHT22;24062;47.480;8.768;2023-02-04T14:18:29;12.00;71.20
38265;DHT22;24062;47.480;8.768;2023-02-04T14:20:56;12.10;71.20
38265;DHT22;24062;47.480;8.768;2023-02-04T14:23:23;12.20;71.90
38265;DHT22;24062;47.480;8.768;2023-02-04T14:25:50;12.50;71.70
38265;DHT22;24062;47.480;8.768;2023-02-04T14:28:17;12.40;69.80
38265;DHT22;24062;47.480;8.768;2023-02-04T14:30:44;12.40;70.30
38265;DHT22;24062;47.480;8.768;2023-02-04T14:33:13;12.30;69.50
38265;DHT22;24062;47.480;8.768;2023-02-04T14:35:42;12.30;69.40
38265;DHT22;24062;47.480;8.768;2023-02-04T14:38:10;12.30;69.20
38265;DHT22;24062;47.480;8.768;2023-02-04T14:40:37;12.40;68.60
38265;DHT22;24062;47.480;8.768;2023-02-04T14:43:04;12.60;68.30
38265;DHT22;24062;47.480;8.768;2023-02-04T14:45:32;12.80;66.90
38265;DHT22;24062;47.480;8.768;2023-02-04T14:47:59;12.70;67.70
38265;DHT22;24062;47.480;8.768;2023-02-04T14:50:27;12.60;66.00
38265;DHT22;24062;47.480;8.768;2023-02-04T14:52:55;12.80;65.20
38265;DHT22;24062;47.480;8.768;2023-02-04T14:55:22;13.80;67.60
38265;DHT22;24062;47.480;8.768;2023-02-04T14:57:49;14.30;68.00
38265;DHT22;24062;47.480;8.768;2023-02-04T15:00:17;14.30;65.50
38265;DHT22;24062;47.480;8.768;2023-02-04T15:02:45;14.30;65.40
38265;DHT22;24062;47.480;8.768;2023-02-04T15:05:12;13.80;62.60
38265;DHT22;24062;47.480;8.768;2023-02-04T15:07:41;13.00;62.30
38265;DHT22;24062;47.480;8.768;2023-02-04T15:10:09;12.40;62.50
38265;DHT22;24062;47.480;8.768;2023-02-04T15:12:36;12.00;62.40
38265;DHT22;24062;47.480;8.768;2023-02-04T15:15:04;11.70;62.20
38265;DHT22;24062;47.480;8.768;2023-02-04T15:17:31;11.40;62.50
38265;DHT22;24062;47.480;8.768;2023-02-04T15:19:58;11.10;62.90
38265;DHT22;24062;47.480;8.768;2023-02-04T15:22:25;10.80;62.30
38265;DHT22;24062;47.480;8.768;2023-02-04T15:24:53;10.70;63.30
38265;DHT22;24062;47.480;8.768;2023-02-04T15:27:20;10.60;63.70
38265;DHT22;24062;47.480;8.768;2023-02-04T15:29:47;10.60;63.20
38265;DHT22;24062;47.480;8.768;2023-02-04T15:32:14;10.50;63.50
38265;DHT22;24062;47.480;8.768;2023-02-04T15:34:41;10.50;64.20
38265;DHT22;24062;47.480;8.768;2023-02-04T15:37:08;10.50;63.50
38265;DHT22;24062;47.480;8.768;2023-02-04T15:39:35;10.40;63.30
38265;DHT22;24062;47.480;8.768;2023-02-04T15:42:04;10.30;63.40
38265;DHT22;24062;47.480;8.768;2023-02-04T15:44:31;10.30;63.70
38265;DHT22;24062;47.480;8.768;2023-02-04T15:46:58;10.30;63.40
38265;DHT22;24062;47.480;8.768;2023-02-04T15:49:24;10.00;62.90
38265;DHT22;24062;47.480;8.768;2023-02-04T15:51:51;9.80;64.20